createdAt,value
2018-07-25T00:01:58.141Z,62.00
2018-07-25T00:04:26.879Z,62.00
2018-07-25T00:06:55.411Z,62.00
2018-07-25T00:11:52.315Z,62.20
2018-07-25T00:14:20.179Z,62.20
2018-07-25T00:16:48.863Z,62.30
2018-07-25T00:19:17.472Z,62.60
2018-07-25T00:21:45.999Z,62.90
2018-07-25T00:24:14.752Z,62.90
2018-07-25T00:26:43.382Z,63.10
2018-07-25T00:29:12.087Z,63.20
2018-07-25T00:31:40.875Z,63.10
2018-07-25T00:34:09.443Z,63.30
2018-07-25T00:36:38.145Z,63.10
2018-07-25T00:39:08.043Z,63.10
2018-07-25T00:41:36.763Z,63.10
2018-07-25T00:44:05.368Z,63.10
2018-07-25T00:46:34.142Z,64.30
2018-07-25T00:51:31.356Z,63.50
2018-07-25T00:54:00.126Z,63.40
2018-07-25T00:56:28.696Z,63.40
2018-07-25T00:58:57.228Z,63.70
2018-07-25T01:01:25.768Z,63.80
2018-07-25T01:03:54.292Z,64.20
2018-07-25T01:06:22.838Z,64.10
2018-07-25T01:08:51.722Z,64.00
2018-07-25T01:11:20.309Z,64.10
2018-07-25T01:13:48.870Z,63.80
2018-07-25T01:16:17.582Z,63.90
2018-07-25T01:18:46.172Z,63.80
2018-07-25T01:21:14.768Z,63.50
2018-07-25T01:23:43.430Z,63.30
2018-07-25T01:26:11.997Z,63.00
2018-07-25T01:28:40.532Z,63.60
2018-07-25T01:31:09.211Z,64.10
2018-07-25T01:33:37.730Z,63.40
2018-07-25T01:36:06.279Z,64.00
2018-07-25T01:38:34.799Z,63.70
2018-07-25T01:41:03.361Z,63.90
2018-07-25T01:43:31.956Z,63.60
2018-07-25T01:46:00.592Z,63.60
2018-07-25T01:48:29.191Z,63.80
2018-07-25T01:50:58.107Z,63.70
2018-07-25T01:55:54.795Z,64.50
2018-07-25T01:58:23.350Z,64.00
2018-07-25T02:00:51.835Z,64.30
2018-07-25T02:03:20.524Z,64.40
2018-07-25T02:05:49.029Z,64.20
2018-07-25T02:08:17.865Z,65.50
2018-07-25T02:10:47.087Z,65.30
2018-07-25T02:13:16.765Z,65.10
2018-07-25T02:15:46.080Z,65.00
2018-07-25T02:18:14.592Z,65.40
2018-07-25T02:20:43.223Z,65.40
2018-07-25T02:23:11.804Z,65.50
2018-07-25T02:25:40.374Z,65.40
2018-07-25T02:28:08.912Z,65.70
2018-07-25T02:30:37.448Z,65.90
2018-07-25T02:33:06.370Z,66.10
2018-07-25T02:35:34.876Z,66.00
2018-07-25T02:38:03.376Z,66.40
2018-07-25T02:40:32.748Z,67.10
2018-07-25T02:43:01.246Z,67.20
2018-07-25T02:45:35.198Z,67.30
2018-07-25T02:48:03.796Z,67.00
2018-07-25T02:50:33.652Z,67.00
2018-07-25T02:53:02.198Z,67.10
2018-07-25T02:57:58.951Z,67.30
2018-07-25T03:02:55.677Z,67.40
2018-07-25T03:05:24.250Z,67.40
2018-07-25T03:07:52.836Z,68.00
2018-07-25T03:10:21.462Z,67.50
2018-07-25T03:12:50.076Z,67.10
2018-07-25T03:15:18.628Z,67.20
2018-07-25T03:17:47.166Z,67.20
2018-07-25T03:20:15.823Z,67.10
2018-07-25T03:22:44.354Z,66.80
2018-07-25T03:27:41.056Z,66.00
2018-07-25T03:30:09.574Z,66.70
2018-07-25T03:32:38.066Z,66.80
2018-07-25T03:35:05.848Z,66.60
2018-07-25T03:37:34.406Z,66.90
2018-07-25T03:40:02.856Z,67.20
2018-07-25T03:42:31.429Z,67.50
2018-07-25T03:45:00.062Z,67.10
2018-07-25T03:47:28.592Z,67.20
2018-07-25T03:49:57.131Z,67.80
2018-07-25T03:52:25.688Z,67.00
2018-07-25T03:54:54.344Z,67.00
2018-07-25T03:57:23.024Z,67.10
2018-07-25T03:59:51.671Z,67.10
2018-07-25T04:02:20.229Z,66.50
2018-07-25T04:04:48.759Z,66.90
2018-07-25T04:07:17.347Z,66.90
2018-07-25T04:09:45.945Z,66.80
2018-07-25T04:12:14.540Z,66.90
2018-07-25T04:14:43.346Z,66.90
2018-07-25T04:17:11.991Z,66.80
2018-07-25T04:19:40.542Z,66.60
2018-07-25T04:22:09.151Z,66.70
2018-07-25T04:24:37.787Z,66.80
2018-07-25T04:27:06.343Z,66.80
2018-07-25T04:29:34.904Z,66.80
2018-07-25T04:32:03.546Z,66.90
2018-07-25T04:37:00.332Z,67.30
2018-07-25T04:39:29.007Z,67.40
2018-07-25T04:41:57.796Z,67.60
2018-07-25T04:44:26.695Z,66.80
2018-07-25T04:46:55.323Z,66.80
2018-07-25T04:49:23.977Z,66.60
2018-07-25T04:51:51.713Z,66.40
2018-07-25T04:56:46.834Z,67.00
2018-07-25T04:59:14.612Z,67.90
2018-07-25T05:01:42.385Z,67.30
2018-07-25T05:04:11.119Z,67.50
2018-07-25T05:06:40.259Z,67.80
2018-07-25T05:09:09.607Z,67.60
2018-07-25T05:11:38.147Z,67.20
2018-07-25T05:14:07.081Z,67.00
2018-07-25T05:16:36.116Z,67.30
2018-07-25T05:19:05.066Z,67.20
2018-07-25T05:21:34.075Z,67.00
2018-07-25T05:26:31.556Z,66.10
2018-07-25T05:29:00.298Z,66.30
2018-07-25T05:31:28.069Z,66.40
2018-07-25T05:33:55.928Z,66.20
2018-07-25T05:36:23.938Z,66.60
2018-07-25T05:38:51.698Z,66.70
2018-07-25T05:41:19.493Z,66.80
2018-07-25T05:43:47.251Z,67.20
2018-07-25T05:46:15.772Z,67.10
2018-07-25T05:48:44.398Z,67.00
2018-07-25T05:51:12.914Z,67.00
2018-07-25T05:53:41.452Z,67.10
2018-07-25T05:56:10.004Z,66.90
2018-07-25T05:58:38.629Z,67.10
2018-07-25T06:03:35.402Z,66.90
2018-07-25T06:06:04.145Z,66.90
2018-07-25T06:08:32.896Z,66.90
2018-07-25T06:13:29.549Z,66.90
2018-07-25T06:15:58.076Z,67.00
2018-07-25T06:18:26.779Z,67.10
2018-07-25T06:20:55.291Z,66.10
2018-07-25T06:23:23.933Z,66.20
2018-07-25T06:25:52.592Z,66.20
2018-07-25T06:28:21.079Z,66.20
2018-07-25T06:30:49.591Z,66.20
2018-07-25T06:33:18.176Z,66.10
2018-07-25T06:35:46.769Z,66.10
2018-07-25T06:38:15.619Z,66.30
2018-07-25T06:40:44.259Z,66.60
2018-07-25T06:43:13.000Z,66.60
2018-07-25T06:45:41.475Z,66.20
2018-07-25T06:48:10.263Z,66.20
2018-07-25T06:50:38.842Z,66.00
2018-07-25T06:53:07.634Z,65.60
2018-07-25T06:55:36.162Z,65.40
2018-07-25T06:58:04.828Z,65.60
2018-07-25T07:00:33.343Z,65.80
2018-07-25T07:03:01.886Z,66.00
2018-07-25T07:05:30.787Z,65.50
2018-07-25T07:07:59.344Z,65.30
2018-07-25T07:12:56.089Z,65.50
2018-07-25T07:15:24.683Z,65.50
2018-07-25T07:17:53.327Z,65.20
2018-07-25T07:20:21.918Z,65.30
2018-07-25T07:22:50.764Z,65.30
2018-07-25T07:25:19.593Z,65.20
2018-07-25T07:27:48.265Z,65.50
2018-07-25T07:30:16.976Z,65.30
2018-07-25T07:32:45.505Z,65.30
2018-07-25T07:35:14.240Z,65.40
2018-07-25T07:37:42.971Z,65.20
2018-07-25T07:42:40.111Z,65.10
2018-07-25T07:45:09.207Z,65.00
2018-07-25T07:47:37.765Z,65.00
2018-07-25T07:50:06.666Z,66.00
2018-07-25T07:52:35.270Z,65.90
2018-07-25T07:55:04.544Z,65.60
2018-07-25T07:57:33.217Z,65.20
2018-07-25T08:00:02.039Z,64.80
2018-07-25T08:02:30.707Z,64.40
2018-07-25T08:04:59.188Z,65.10
2018-07-25T08:07:27.775Z,64.80
2018-07-25T08:09:56.375Z,65.40
2018-07-25T08:12:25.003Z,65.00
2018-07-25T08:14:53.582Z,64.40
2018-07-25T08:17:22.975Z,64.20
2018-07-25T08:19:51.618Z,64.40
2018-07-25T08:22:20.324Z,64.20
2018-07-25T08:24:48.908Z,63.70
2018-07-25T08:27:17.640Z,63.30
2018-07-25T08:29:46.237Z,63.10
2018-07-25T08:32:16.347Z,63.20
2018-07-25T08:37:13.463Z,62.00
2018-07-25T08:39:42.001Z,61.50
2018-07-25T08:42:10.626Z,59.80
2018-07-25T08:44:39.248Z,59.90
2018-07-25T08:47:07.996Z,59.80
2018-07-25T08:49:36.630Z,58.50
2018-07-25T08:52:05.241Z,57.90
2018-07-25T08:54:33.753Z,57.60
2018-07-25T08:57:02.393Z,57.60
2018-07-25T08:59:31.023Z,57.60
2018-07-25T09:01:59.695Z,56.40
2018-07-25T09:04:28.343Z,55.50
2018-07-25T09:06:57.155Z,54.60
2018-07-25T09:09:25.837Z,55.20
2018-07-25T09:11:54.436Z,53.80
2018-07-25T09:14:23.136Z,53.90
2018-07-25T09:16:51.702Z,53.60
2018-07-25T09:19:20.352Z,53.90
2018-07-25T09:21:48.995Z,54.10
2018-07-25T09:24:17.726Z,52.80
2018-07-25T09:26:46.351Z,53.20
2018-07-25T09:29:14.862Z,53.60
2018-07-25T09:31:43.523Z,52.60
2018-07-25T09:34:12.171Z,53.10
2018-07-25T09:36:40.992Z,52.80
2018-07-25T09:39:11.354Z,53.30
2018-07-25T09:44:08.540Z,51.20
2018-07-25T09:46:37.108Z,50.10
2018-07-25T09:49:05.975Z,50.60
2018-07-25T09:51:34.601Z,50.20
2018-07-25T09:54:03.370Z,50.10
2018-07-25T09:56:32.183Z,50.80
2018-07-25T09:59:00.860Z,50.60
2018-07-25T10:01:29.544Z,50.50
2018-07-25T10:03:58.339Z,49.30
2018-07-25T10:06:27.248Z,47.40
2018-07-25T10:08:55.897Z,47.30
2018-07-25T10:11:24.524Z,47.50
2018-07-25T10:13:54.572Z,47.60
2018-07-25T10:16:23.310Z,47.70
2018-07-25T10:18:52.152Z,47.60
2018-07-25T10:21:20.879Z,48.00
2018-07-25T10:23:49.593Z,46.20
2018-07-25T10:26:18.236Z,45.50
2018-07-25T10:28:46.918Z,46.00
2018-07-25T10:31:15.562Z,46.50
2018-07-25T10:33:44.123Z,44.50
2018-07-25T10:36:12.951Z,45.20
2018-07-25T10:38:41.626Z,46.00
2018-07-25T10:41:16.748Z,44.80
2018-07-25T10:43:45.412Z,44.20
2018-07-25T10:46:14.278Z,44.60
2018-07-25T10:48:43.018Z,44.90
2018-07-25T10:51:11.607Z,44.30
2018-07-25T10:53:40.116Z,42.40
2018-07-25T10:56:08.757Z,44.70
2018-07-25T10:58:37.355Z,42.40
2018-07-25T11:01:06.180Z,45.60
2018-07-25T11:03:34.891Z,43.80
2018-07-25T11:06:03.573Z,43.30
2018-07-25T11:08:32.321Z,42.60
2018-07-25T11:11:00.963Z,42.10
2018-07-25T11:13:29.667Z,43.40
2018-07-25T11:15:58.409Z,42.80
2018-07-25T11:18:26.996Z,42.90
2018-07-25T11:20:55.742Z,41.80
2018-07-25T11:23:24.309Z,41.90
2018-07-25T11:25:53.645Z,42.20
2018-07-25T11:28:22.244Z,40.80
2018-07-25T11:30:51.091Z,41.70
2018-07-25T11:33:19.993Z,41.00
2018-07-25T11:35:48.612Z,41.80
2018-07-25T11:38:17.454Z,41.20
2018-07-25T11:40:45.980Z,39.20
2018-07-25T11:43:14.736Z,39.60
2018-07-25T11:45:43.255Z,40.20
2018-07-25T11:48:11.896Z,39.00
2018-07-25T11:50:40.644Z,39.10
2018-07-25T11:53:10.072Z,39.90
2018-07-25T11:55:38.728Z,38.50
2018-07-25T11:58:07.371Z,39.80
2018-07-25T12:00:36.225Z,38.90
2018-07-25T12:03:04.829Z,37.80
2018-07-25T12:05:33.532Z,38.40
2018-07-25T12:08:02.228Z,37.90
2018-07-25T12:10:30.835Z,37.10
2018-07-25T12:12:59.515Z,38.00
2018-07-25T12:15:28.348Z,38.70
2018-07-25T12:17:56.954Z,38.40
2018-07-25T12:20:25.559Z,38.40
2018-07-25T12:22:54.256Z,38.70
2018-07-25T12:25:23.092Z,39.60
2018-07-25T12:30:19.951Z,38.50
2018-07-25T12:32:48.596Z,37.90
2018-07-25T12:35:17.483Z,37.90
2018-07-25T12:37:46.442Z,37.10
2018-07-25T12:40:15.151Z,38.40
2018-07-25T12:42:44.495Z,38.00
2018-07-25T12:45:13.347Z,38.00
2018-07-25T12:47:42.046Z,36.30
2018-07-25T12:50:10.828Z,36.40
2018-07-25T12:52:39.492Z,35.70
2018-07-25T12:55:08.076Z,34.20
2018-07-25T12:57:36.856Z,34.70
2018-07-25T13:00:07.164Z,34.20
2018-07-25T13:02:35.845Z,36.50
2018-07-25T13:05:05.026Z,34.70
2018-07-25T13:07:34.372Z,35.30
2018-07-25T13:10:03.145Z,35.20
2018-07-25T13:12:31.906Z,35.50
2018-07-25T13:15:00.842Z,34.90
2018-07-25T13:17:29.457Z,34.70
2018-07-25T13:19:58.067Z,35.10
2018-07-25T13:22:26.740Z,33.70
2018-07-25T13:24:55.357Z,33.70
2018-07-25T13:27:24.190Z,35.10
2018-07-25T13:29:52.929Z,34.20
2018-07-25T13:32:21.471Z,34.80
2018-07-25T13:34:49.199Z,33.60
2018-07-25T13:37:16.987Z,33.50
2018-07-25T13:39:44.903Z,34.00
2018-07-25T13:42:12.708Z,33.40
2018-07-25T13:44:40.614Z,33.00
2018-07-25T13:47:08.724Z,33.60
2018-07-25T13:49:36.570Z,33.40
2018-07-25T13:52:04.544Z,33.10
2018-07-25T13:54:33.040Z,33.30
2018-07-25T13:57:01.578Z,32.70
2018-07-25T13:59:30.150Z,33.90
2018-07-25T14:01:58.903Z,32.80
2018-07-25T14:04:28.263Z,33.90
2018-07-25T14:06:56.984Z,33.20
2018-07-25T14:09:25.697Z,33.20
2018-07-25T14:11:54.361Z,33.90
2018-07-25T14:14:23.187Z,34.20
2018-07-25T14:16:51.854Z,34.50
2018-07-25T14:21:48.879Z,35.60
2018-07-25T14:24:17.580Z,36.20
2018-07-25T14:26:46.527Z,36.70
2018-07-25T14:29:15.277Z,37.30
2018-07-25T14:31:44.218Z,37.80
2018-07-25T14:34:12.952Z,37.90
2018-07-25T14:36:41.806Z,38.30
2018-07-25T14:39:11.486Z,38.60
2018-07-25T14:41:40.887Z,38.70
2018-07-25T14:44:10.094Z,39.10
2018-07-25T14:46:38.974Z,37.10
2018-07-25T14:49:07.808Z,37.80
2018-07-25T14:51:36.629Z,38.10
2018-07-25T14:54:05.576Z,37.00
2018-07-25T14:56:34.313Z,37.10
2018-07-25T14:59:03.045Z,36.00
2018-07-25T15:01:30.915Z,37.50
2018-07-25T15:03:58.857Z,37.50
2018-07-25T15:06:27.552Z,37.40
2018-07-25T15:08:56.313Z,38.10
2018-07-25T15:11:24.923Z,38.50
2018-07-25T15:13:53.920Z,40.00
2018-07-25T15:16:22.717Z,40.70
2018-07-25T15:18:51.703Z,40.90
2018-07-25T15:21:20.325Z,40.80
2018-07-25T15:23:58.348Z,41.70
2018-07-25T15:26:27.506Z,42.40
2018-07-25T15:28:56.330Z,42.70
2018-07-25T15:31:25.061Z,43.50
2018-07-25T15:33:54.362Z,43.40
2018-07-25T15:36:48.752Z,43.50
2018-07-25T15:39:19.543Z,44.00
2018-07-25T15:41:49.107Z,44.10
2018-07-25T15:44:18.854Z,45.10
2018-07-25T15:46:47.605Z,45.10
2018-07-25T15:49:16.431Z,45.00
2018-07-25T15:51:45.156Z,45.30
2018-07-25T15:54:13.814Z,45.40
2018-07-25T15:56:42.781Z,44.40
2018-07-25T15:59:11.523Z,44.10
2018-07-25T16:01:41.118Z,43.10
2018-07-25T16:04:09.840Z,43.40
2018-07-25T16:06:38.552Z,43.60
2018-07-25T16:09:12.391Z,44.70
2018-07-25T16:11:41.515Z,44.80
2018-07-25T16:14:10.425Z,44.20
2018-07-25T16:19:07.427Z,43.80
2018-07-25T16:21:36.213Z,44.10
2018-07-25T16:24:05.127Z,43.50
2018-07-25T16:26:33.786Z,44.80
2018-07-25T16:29:03.200Z,46.50
2018-07-25T16:31:32.113Z,45.10
2018-07-25T16:34:01.163Z,43.10
2018-07-25T16:36:30.029Z,42.60
2018-07-25T16:38:58.879Z,40.20
2018-07-25T16:41:27.831Z,38.40
2018-07-25T16:43:56.435Z,38.90
2018-07-25T16:46:25.169Z,39.00
2018-07-25T16:48:53.907Z,38.50
2018-07-25T16:51:22.735Z,38.20
2018-07-25T16:53:51.568Z,37.90
2018-07-25T16:56:20.232Z,36.40
2018-07-25T16:58:49.096Z,37.50
2018-07-25T17:01:17.865Z,36.90
2018-07-25T17:03:46.573Z,37.10
2018-07-25T17:06:15.425Z,37.80
2018-07-25T17:08:44.062Z,37.30
2018-07-25T17:11:12.941Z,37.80
2018-07-25T17:16:10.357Z,37.60
2018-07-25T17:18:38.942Z,37.40
2018-07-25T17:21:07.784Z,37.10
2018-07-25T17:26:05.145Z,37.30
2018-07-25T17:28:33.968Z,37.80
2018-07-25T17:31:02.576Z,37.40
2018-07-25T17:33:31.215Z,37.00
2018-07-25T17:35:59.954Z,37.70
2018-07-25T17:38:29.629Z,37.60
2018-07-25T17:40:58.390Z,38.50
2018-07-25T17:43:27.501Z,38.40
2018-07-25T17:45:56.188Z,38.00
2018-07-25T17:48:25.079Z,37.10
2018-07-25T17:50:53.876Z,38.00
2018-07-25T17:53:22.665Z,37.50
2018-07-25T17:55:51.383Z,38.00
2018-07-25T17:58:20.207Z,38.70
2018-07-25T18:00:49.223Z,39.10
2018-07-25T18:03:18.114Z,39.40
2018-07-25T18:05:46.965Z,40.10
2018-07-25T18:08:15.724Z,40.40
2018-07-25T18:10:44.365Z,40.40
2018-07-25T18:13:18.558Z,40.50
2018-07-25T18:15:47.480Z,40.50
2018-07-25T18:18:16.117Z,40.60
2018-07-25T18:20:44.840Z,40.60
2018-07-25T18:23:13.699Z,40.20
2018-07-25T18:25:42.532Z,40.00
2018-07-25T18:28:11.404Z,40.50
2018-07-25T18:30:40.574Z,40.40
2018-07-25T18:33:09.529Z,40.90
2018-07-25T18:35:38.566Z,41.00
2018-07-25T18:38:07.249Z,41.50
2018-07-25T18:40:36.715Z,42.30
2018-07-25T18:45:34.360Z,42.50
2018-07-25T18:48:03.217Z,42.70
2018-07-25T18:50:32.443Z,43.30
2018-07-25T18:53:01.686Z,45.10
2018-07-25T18:55:30.476Z,45.70
2018-07-25T18:57:59.333Z,44.60
2018-07-25T19:00:28.106Z,44.30
2018-07-25T19:02:57.035Z,44.30
2018-07-25T19:05:32.384Z,44.70
2018-07-25T19:08:02.467Z,45.10
2018-07-25T19:10:31.820Z,46.40
2018-07-25T19:13:00.742Z,46.50
2018-07-25T19:15:31.921Z,46.70
2018-07-25T19:18:01.493Z,46.90
2018-07-25T19:20:30.697Z,48.10
2018-07-25T19:22:59.531Z,48.60
2018-07-25T19:25:28.613Z,48.50
2018-07-25T19:27:57.649Z,48.00
2018-07-25T19:30:26.329Z,48.30
2018-07-25T19:32:55.382Z,48.90
2018-07-25T19:35:24.053Z,48.60
2018-07-25T19:37:52.746Z,49.30
2018-07-25T19:40:21.455Z,49.30
2018-07-25T19:42:50.193Z,47.60
2018-07-25T19:45:18.974Z,47.50
2018-07-25T19:50:16.587Z,48.90
2018-07-25T19:52:45.479Z,48.90
2018-07-25T19:55:14.557Z,48.40
2018-07-25T19:57:43.355Z,48.80
2018-07-25T20:00:16.383Z,49.20
2018-07-25T20:02:41.760Z,50.00
2018-07-25T20:05:11.613Z,50.80
2018-07-25T20:07:40.696Z,51.40
2018-07-25T20:10:09.365Z,51.90
2018-07-25T20:12:38.413Z,52.00
2018-07-25T20:15:12.620Z,52.00
2018-07-25T20:20:10.438Z,50.80
2018-07-25T20:22:39.509Z,50.60
2018-07-25T20:25:08.432Z,50.60
2018-07-25T20:27:37.441Z,51.40
2018-07-25T20:30:07.775Z,51.90
2018-07-25T20:32:36.757Z,52.10
2018-07-25T20:35:06.608Z,52.70
2018-07-25T20:37:36.042Z,51.60
2018-07-25T20:40:05.628Z,52.80
2018-07-25T20:42:34.531Z,51.80
2018-07-25T20:45:03.240Z,52.50
2018-07-25T20:47:32.413Z,53.40
2018-07-25T20:50:01.183Z,53.50
2018-07-25T20:52:30.159Z,52.90
2018-07-25T20:54:59.159Z,52.80
2018-07-25T20:57:27.984Z,51.60
2018-07-25T20:59:57.168Z,52.10
2018-07-25T21:02:26.245Z,52.40
2018-07-25T21:04:54.978Z,52.50
2018-07-25T21:07:23.563Z,52.20
2018-07-25T21:09:52.391Z,52.40
2018-07-25T21:12:21.207Z,53.00
2018-07-25T21:14:49.779Z,53.10
2018-07-25T21:17:18.630Z,52.30
2018-07-25T21:19:47.295Z,52.40
2018-07-25T21:22:16.029Z,52.60
2018-07-25T21:24:44.768Z,52.10
2018-07-25T21:27:13.463Z,52.90
2018-07-25T21:29:42.277Z,53.40
2018-07-25T21:32:10.984Z,54.20
2018-07-25T21:34:39.588Z,54.40
2018-07-25T21:37:08.347Z,54.20
2018-07-25T21:39:36.968Z,54.40
2018-07-25T21:42:05.641Z,54.70
2018-07-25T21:44:34.399Z,53.70
2018-07-25T21:47:03.264Z,53.80
2018-07-25T21:49:31.969Z,53.60
2018-07-25T21:52:00.668Z,53.70
2018-07-25T21:54:29.422Z,54.80
2018-07-25T21:56:58.331Z,55.10
2018-07-25T21:59:26.978Z,54.70
2018-07-25T22:01:55.511Z,55.50
2018-07-25T22:04:24.401Z,55.50
2018-07-25T22:06:53.375Z,55.10
2018-07-25T22:09:21.864Z,55.60
2018-07-25T22:11:50.404Z,56.30
2018-07-25T22:14:19.049Z,57.20
2018-07-25T22:16:47.732Z,57.10
2018-07-25T22:19:16.236Z,57.30
2018-07-25T22:21:44.812Z,56.70
2018-07-25T22:24:13.346Z,57.00
2018-07-25T22:26:41.909Z,56.90
2018-07-25T22:29:10.653Z,57.00
2018-07-25T22:31:39.151Z,57.10
2018-07-25T22:34:07.735Z,57.30
2018-07-25T22:36:36.413Z,57.10
2018-07-25T22:39:07.982Z,57.80
2018-07-25T22:41:36.740Z,58.40
2018-07-25T22:44:05.785Z,57.50
2018-07-25T22:46:34.348Z,57.80
2018-07-25T22:49:03.306Z,58.10
2018-07-25T22:51:32.086Z,57.80
2018-07-25T22:54:00.599Z,58.20
2018-07-25T22:56:29.192Z,58.30
2018-07-25T22:58:57.903Z,58.30
2018-07-25T23:01:26.595Z,57.90
2018-07-25T23:03:55.354Z,58.50
2018-07-25T23:06:23.975Z,59.10
2018-07-25T23:08:52.533Z,59.40
2018-07-25T23:11:21.056Z,60.00
2018-07-25T23:13:49.724Z,60.40
2018-07-25T23:16:18.319Z,60.40
2018-07-25T23:18:47.235Z,60.50
2018-07-25T23:21:15.782Z,60.60
2018-07-25T23:23:44.263Z,60.70
2018-07-25T23:26:12.885Z,61.20
2018-07-25T23:28:41.566Z,61.20
2018-07-25T23:31:10.246Z,61.60
2018-07-25T23:33:40.083Z,61.60
2018-07-25T23:36:08.813Z,61.90
2018-07-25T23:38:37.474Z,61.60
2018-07-25T23:41:06.127Z,61.30
2018-07-25T23:43:34.654Z,61.60
2018-07-25T23:46:03.229Z,62.00
2018-07-25T23:48:31.850Z,62.00
2018-07-25T23:51:00.490Z,62.00
2018-07-25T23:53:29.098Z,62.20
2018-07-25T23:55:57.652Z,64.10
2018-07-25T23:58:26.347Z,63.70
